Time;durP1;ratioP1;P1;durP2;ratioP2;P2;SDS_P1;SDS_P2;PMS_P1;PMS_P2;Temp;Humidity;BMP_temperature;BMP_pressure;BME280_temperature;BME280_humidity;BME280_pressure;Samples;Min_cycle;Max_cycle;Signal;HPM_P1;HPM_P2
2022/01/21 00:00:13;;;;;;;;;;;15.70;34.50;;;;;;8329748;28;19929;-50
2022/01/21 00:04:14;;;;;;;;;;;15.70;35.10;;;;;;8328997;28;19996;-51
2022/01/21 00:08:15;;;;;;;;;;;15.70;34.50;;;;;;8329691;28;19975;-53
2022/01/21 00:12:15;;;;;;;;;;;15.70;34.60;;;;;;8329272;28;19921;-52
2022/01/21 00:16:18;;;;;;;;;;;15.70;34.60;;;;;;8328755;28;19925;-52
2022/01/21 00:30:09;;;;;;;;;;;15.80;34.60;;;;;;8329361;28;19925;-52
2022/01/21 00:33:32;;;;;;;;;;;15.80;34.60;;;;;;8338811;28;19932;-53
2022/01/21 00:37:32;;;;;;;;;;;15.80;34.50;;;;;;8334505;28;20362;-51
2022/01/21 00:41:38;;;;;;;;;;;15.90;34.50;;;;;;8334843;28;19924;-51
2022/01/21 00:45:39;;;;;;;;;;;15.80;34.40;;;;;;8336495;28;19939;-52
2022/01/21 00:49:39;;;;;;;;;;;15.80;34.40;;;;;;8334109;28;20364;-51
2022/01/21 00:53:40;;;;;;;;;;;15.80;34.40;;;;;;8334875;28;20372;-53
2022/01/21 00:57:40;;;;;;;;;;;15.90;34.50;;;;;;8334197;28;19925;-52
2022/01/21 01:01:41;;;;;;;;;;;15.90;34.40;;;;;;8333961;28;19944;-51
2022/01/21 01:05:41;;;;;;;;;;;15.90;34.40;;;;;;8334320;28;20284;-52
2022/01/21 01:09:43;;;;;;;;;;;15.80;34.40;;;;;;8334039;28;19921;-49
2022/01/21 01:22:52;;;;;;;;;;;15.80;34.40;;;;;;8347246;28;19925;-54
2022/01/21 01:31:11;;;;;;;;;;;15.80;34.50;;;;;;8333271;28;20431;-50
2022/01/21 01:35:13;;;;;;;;;;;15.80;34.50;;;;;;8333441;28;20004;-50
2022/01/21 01:39:29;;;;;;;;;;;15.70;34.50;;;;;;8333621;28;19922;-51
2022/01/21 01:51:50;;;;;;;;;;;15.70;34.50;;;;;;8332617;28;19924;-53
2022/01/21 01:55:50;;;;;;;;;;;15.70;34.50;;;;;;8332545;28;19918;-54
2022/01/21 01:59:51;;;;;;;;;;;15.70;34.50;;;;;;8332368;28;20274;-50
2022/01/21 02:03:51;;;;;;;;;;;15.70;34.50;;;;;;8332315;28;20289;-52
2022/01/21 02:07:52;;;;;;;;;;;15.70;34.50;;;;;;8322765;28;19961;-52
2022/01/21 02:11:52;;;;;;;;;;;15.70;34.50;;;;;;8299451;28;19917;-53
2022/01/21 02:16:07;;;;;;;;;;;15.70;35.00;;;;;;8298884;28;19918;-51
2022/01/21 02:24:35;;;;;;;;;;;15.70;34.60;;;;;;8299407;28;19921;-50
2022/01/21 02:28:37;;;;;;;;;;;15.70;34.50;;;;;;8299098;28;20317;-50
2022/01/21 02:32:38;;;;;;;;;;;15.70;34.50;;;;;;8298880;28;20000;-52
2022/01/21 02:36:38;;;;;;;;;;;15.70;34.50;;;;;;8298747;28;19924;-51
2022/01/21 02:40:38;;;;;;;;;;;15.70;34.50;;;;;;8297973;28;19964;-51
2022/01/21 02:44:39;;;;;;;;;;;15.60;34.50;;;;;;8298634;28;19913;-53
2022/01/21 02:48:40;;;;;;;;;;;15.70;34.60;;;;;;8298493;28;19921;-53
2022/01/21 02:52:54;;;;;;;;;;;15.70;34.50;;;;;;8297652;28;19918;-49
2022/01/21 02:56:54;;;;;;;;;;;15.70;34.50;;;;;;8301872;28;19964;-51
2022/01/21 03:00:54;;;;;;;;;;;15.70;34.50;;;;;;8297522;28;20003;-51
2022/01/21 03:05:11;;;;;;;;;;;15.70;34.40;;;;;;8298351;28;19925;-50
2022/01/21 03:09:11;;;;;;;;;;;15.70;34.40;;;;;;8298142;28;20008;-52
2022/01/21 03:13:12;;;;;;;;;;;15.80;34.40;;;;;;8297507;28;19917;-51
2022/01/21 03:17:12;;;;;;;;;;;15.80;34.40;;;;;;8298046;28;20020;-51
2022/01/21 03:21:16;;;;;;;;;;;15.80;34.30;;;;;;8297612;28;19914;-49
2022/01/21 03:25:16;;;;;;;;;;;15.70;34.30;;;;;;8297086;28;20297;-53
2022/01/21 03:29:17;;;;;;;;;;;15.70;34.30;;;;;;8297655;28;19917;-50
2022/01/21 03:33:17;;;;;;;;;;;15.80;34.30;;;;;;8297401;28;19917;-50
2022/01/21 03:37:18;;;;;;;;;;;15.70;34.30;;;;;;8296741;28;19926;-52
2022/01/21 03:41:18;;;;;;;;;;;15.70;34.40;;;;;;8297195;28;19920;-53
2022/01/21 03:45:19;;;;;;;;;;;15.70;34.40;;;;;;8297400;28;19918;-52
2022/01/21 03:49:19;;;;;;;;;;;15.70;34.40;;;;;;8296758;28;20298;-52
2022/01/21 03:53:19;;;;;;;;;;;15.70;34.40;;;;;;8297088;28;19917;-53
2022/01/21 03:57:20;;;;;;;;;;;15.70;34.40;;;;;;8296894;28;19922;-50
2022/01/21 04:01:23;;;;;;;;;;;15.70;34.50;;;;;;8296448;28;19922;-54
2022/01/21 04:05:24;;;;;;;;;;;15.70;34.50;;;;;;8299603;28;20004;-51
2022/01/21 04:09:24;;;;;;;;;;;15.70;34.50;;;;;;8303336;28;19917;-49
2022/01/21 04:13:26;;;;;;;;;;;15.60;34.50;;;;;;8302578;28;19917;-50
2022/01/21 04:17:26;;;;;;;;;;;15.60;34.70;;;;;;8301394;28;19926;-51
2022/01/21 04:21:27;;;;;;;;;;;15.60;34.50;;;;;;8301295;28;19920;-51
2022/01/21 04:25:27;;;;;;;;;;;15.60;34.50;;;;;;8302383;28;19964;-52
2022/01/21 04:29:28;;;;;;;;;;;15.60;34.50;;;;;;8302572;28;19917;-51
2022/01/21 04:33:28;;;;;;;;;;;15.60;34.50;;;;;;8302423;28;19917;-53
2022/01/21 04:37:29;;;;;;;;;;;15.60;34.50;;;;;;8301857;28;20318;-53
2022/01/21 04:49:55;;;;;;;;;;;15.60;34.50;;;;;;8301982;28;19924;-50
2022/01/21 04:53:56;;;;;;;;;;;15.60;34.50;;;;;;8302091;28;20366;-51
2022/01/21 04:57:56;;;;;;;;;;;15.60;34.50;;;;;;8301221;28;19921;-52
2022/01/21 05:01:57;;;;;;;;;;;15.60;34.50;;;;;;8301278;28;19921;-49
2022/01/21 05:05:59;;;;;;;;;;;15.60;34.50;;;;;;8301335;28;19925;-50
2022/01/21 05:09:59;;;;;;;;;;;15.60;34.50;;;;;;8301242;28;20449;-50
2022/01/21 05:14:12;;;;;;;;;;;15.60;34.40;;;;;;8301520;28;19944;-50
2022/01/21 05:18:12;;;;;;;;;;;15.60;35.00;;;;;;8304115;28;19988;-52
2022/01/21 05:22:13;;;;;;;;;;;15.50;34.40;;;;;;8300595;28;19917;-50
2022/01/21 05:26:13;;;;;;;;;;;15.50;34.30;;;;;;8301137;28;19913;-51
2022/01/21 05:30:15;;;;;;;;;;;15.50;34.40;;;;;;8300867;28;19945;-52
2022/01/21 05:34:15;;;;;;;;;;;15.50;34.40;;;;;;8300081;28;19921;-53
2022/01/21 05:38:16;;;;;;;;;;;15.50;34.40;;;;;;8300500;28;20345;-50
2022/01/21 05:42:16;;;;;;;;;;;15.50;34.40;;;;;;8283022;28;20401;-50
2022/01/21 05:46:26;;;;;;;;;;;15.50;34.40;;;;;;8299665;28;20401;-50
2022/01/21 05:50:26;;;;;;;;;;;15.50;34.40;;;;;;8298520;28;20008;-50
2022/01/21 05:54:27;;;;;;;;;;;15.50;34.40;;;;;;8300129;28;19945;-49
2022/01/21 05:58:27;;;;;;;;;;;15.50;34.40;;;;;;8299175;28;20386;-50
2022/01/21 06:02:28;;;;;;;;;;;15.50;34.40;;;;;;8299825;28;19924;-52
2022/01/21 06:06:29;;;;;;;;;;;15.50;34.40;;;;;;8299724;28;19964;-51
2022/01/21 06:10:30;;;;;;;;;;;15.50;34.40;;;;;;8299273;28;19913;-51
2022/01/21 06:14:31;;;;;;;;;;;15.50;34.40;;;;;;8299318;28;20329;-53
2022/01/21 06:18:31;;;;;;;;;;;15.50;34.30;;;;;;8299259;28;19976;-53
2022/01/21 06:22:33;;;;;;;;;;;15.50;34.30;;;;;;8298695;28;20040;-51
2022/01/21 06:26:35;;;;;;;;;;;15.50;34.30;;;;;;8299247;28;19945;-53
2022/01/21 06:30:35;;;;;;;;;;;15.60;34.30;;;;;;8298667;28;19914;-51
2022/01/21 06:34:36;;;;;;;;;;;15.60;34.30;;;;;;8298305;28;19925;-52
2022/01/21 06:38:36;;;;;;;;;;;15.60;34.20;;;;;;8298580;28;19925;-51
2022/01/21 06:42:37;;;;;;;;;;;15.70;34.20;;;;;;8298459;28;20278;-52
2022/01/21 06:46:37;;;;;;;;;;;15.70;34.10;;;;;;8297953;28;19920;-50
2022/01/21 06:50:39;;;;;;;;;;;15.70;34.10;;;;;;8298496;28;19996;-50
2022/01/21 06:54:39;;;;;;;;;;;15.70;34.10;;;;;;8297836;28;19918;-53
2022/01/21 06:58:40;;;;;;;;;;;15.70;34.00;;;;;;8297404;28;20091;-50
2022/01/21 07:02:40;;;;;;;;;;;15.70;34.00;;;;;;8297998;28;19928;-50
2022/01/21 07:06:41;;;;;;;;;;;15.60;34.00;;;;;;8298126;28;19997;-52
2022/01/21 07:10:41;;;;;;;;;;;15.60;34.00;;;;;;8297543;28;19929;-51
2022/01/21 07:14:42;;;;;;;;;;;15.60;34.00;;;;;;8297977;28;19921;-52
2022/01/21 07:18:42;;;;;;;;;;;15.60;34.00;;;;;;8297630;28;20308;-53
2022/01/21 07:22:43;;;;;;;;;;;15.60;34.10;;;;;;8297112;28;19934;-52
2022/01/21 07:26:43;;;;;;;;;;;15.60;34.10;;;;;;8297969;28;19913;-50
2022/01/21 07:30:44;;;;;;;;;;;15.60;34.10;;;;;;8297231;28;20112;-50
2022/01/21 07:34:44;;;;;;;;;;;15.50;34.10;;;;;;8296619;28;19921;-54
2022/01/21 07:38:45;;;;;;;;;;;15.50;34.10;;;;;;8297129;28;19926;-52
2022/01/21 07:42:45;;;;;;;;;;;15.50;34.10;;;;;;8303502;28;19940;-53
2022/01/21 07:46:46;;;;;;;;;;;15.50;34.10;;;;;;8303623;28;20336;-52
2022/01/21 07:50:46;;;;;;;;;;;15.50;34.10;;;;;;8303644;28;20373;-53
2022/01/21 07:54:47;;;;;;;;;;;15.50;34.10;;;;;;8303598;28;19971;-51
2022/01/21 07:58:47;;;;;;;;;;;15.50;34.10;;;;;;8302751;28;19929;-54
2022/01/21 08:02:48;;;;;;;;;;;15.50;34.10;;;;;;8302573;28;19921;-55
2022/01/21 08:06:49;;;;;;;;;;;15.50;34.10;;;;;;8303151;28;19961;-51
2022/01/21 08:10:49;;;;;;;;;;;15.50;34.10;;;;;;8303433;28;19917;-52
2022/01/21 08:14:50;;;;;;;;;;;15.50;34.20;;;;;;8302993;28;19917;-55
2022/01/21 08:18:50;;;;;;;;;;;15.50;34.20;;;;;;8302300;28;20298;-50
2022/01/21 08:22:51;;;;;;;;;;;15.50;34.20;;;;;;8302770;28;20267;-51
2022/01/21 08:26:51;;;;;;;;;;;15.50;34.20;;;;;;8302876;28;19913;-51
2022/01/21 08:30:52;;;;;;;;;;;15.50;34.20;;;;;;8302069;28;19921;-51
2022/01/21 08:34:52;;;;;;;;;;;15.40;34.10;;;;;;8302393;28;19929;-55
2022/01/21 08:38:53;;;;;;;;;;;15.50;34.20;;;;;;8302267;28;19972;-56
2022/01/21 08:42:53;;;;;;;;;;;15.50;34.10;;;;;;8301743;28;19925;-54
2022/01/21 08:46:54;;;;;;;;;;;15.50;34.20;;;;;;8302187;28;20385;-51
2022/01/21 08:50:59;;;;;;;;;;;15.50;34.20;;;;;;8301549;28;19918;-53
2022/01/21 08:55:00;;;;;;;;;;;15.40;34.10;;;;;;8301286;28;19917;-52
2022/01/21 08:59:00;;;;;;;;;;;15.50;34.20;;;;;;8301775;28;19948;-52
2022/01/21 09:03:02;;;;;;;;;;;15.50;34.20;;;;;;8301596;28;20267;-49
2022/01/21 09:07:03;;;;;;;;;;;15.40;34.20;;;;;;8301199;28;20012;-52
2022/01/21 09:11:04;;;;;;;;;;;15.50;34.20;;;;;;8301179;28;19968;-53
2022/01/21 09:15:05;;;;;;;;;;;15.40;34.20;;;;;;8301232;28;19925;-51
2022/01/21 09:19:06;;;;;;;;;;;15.50;34.30;;;;;;8300251;28;19925;-50
2022/01/21 09:23:06;;;;;;;;;;;15.50;34.20;;;;;;8300958;28;19979;-50
2022/01/21 09:27:07;;;;;;;;;;;15.50;34.20;;;;;;8300972;28;19914;-52
2022/01/21 09:31:07;;;;;;;;;;;15.50;34.20;;;;;;8299992;28;19925;-53
2022/01/21 09:35:08;;;;;;;;;;;15.50;34.20;;;;;;8300783;28;20004;-53
2022/01/21 09:39:08;;;;;;;;;;;15.50;34.20;;;;;;8299582;28;20271;-49
2022/01/21 09:43:09;;;;;;;;;;;15.50;34.20;;;;;;8298609;28;19917;-50
2022/01/21 09:47:12;;;;;;;;;;;15.50;34.20;;;;;;8300527;28;20385;-54
2022/01/21 09:51:12;;;;;;;;;;;15.50;34.10;;;;;;8300118;28;19928;-50
2022/01/21 09:55:13;;;;;;;;;;;15.50;34.20;;;;;;8299489;28;19918;-54
2022/01/21 09:59:16;;;;;;;;;;;15.50;34.20;;;;;;8299761;28;19948;-51
2022/01/21 10:03:17;;;;;;;;;;;15.50;34.20;;;;;;8299160;28;19932;-53
2022/01/21 10:07:20;;;;;;;;;;;15.60;34.20;;;;;;8299408;28;19995;-52
2022/01/21 10:11:21;;;;;;;;;;;15.60;34.20;;;;;;8299486;28;20289;-51
2022/01/21 10:15:21;;;;;;;;;;;15.70;34.10;;;;;;8299448;28;19924;-53
2022/01/21 10:19:29;;;;;;;;;;;15.70;34.10;;;;;;8298650;28;19925;-52
2022/01/21 10:23:31;;;;;;;;;;;15.70;34.00;;;;;;8299043;28;19918;-53
2022/01/21 10:27:33;;;;;;;;;;;15.70;34.00;;;;;;8299402;28;19913;-54
2022/01/21 10:31:34;;;;;;;;;;;15.70;33.90;;;;;;8298331;28;19980;-53
2022/01/21 10:35:39;;;;;;;;;;;15.70;34.00;;;;;;8298526;28;19987;-53
2022/01/21 10:39:55;;;;;;;;;;;15.80;34.00;;;;;;8298259;28;19933;-54
2022/01/21 10:44:16;;;;;;;;;;;15.80;34.00;;;;;;8307162;28;20000;-55
2022/01/21 10:48:16;;;;;;;;;;;15.80;33.90;;;;;;8330427;28;19924;-55
2022/01/21 10:52:29;;;;;;;;;;;15.80;34.00;;;;;;8330704;28;20373;-53
2022/01/21 10:56:29;;;;;;;;;;;15.80;34.00;;;;;;8331045;28;19917;-53
2022/01/21 11:00:29;;;;;;;;;;;15.80;33.90;;;;;;8330720;28;20000;-54
2022/01/21 11:04:39;;;;;;;;;;;15.80;33.90;;;;;;8329671;28;20405;-52
2022/01/21 11:08:39;;;;;;;;;;;15.80;33.90;;;;;;8330308;28;19913;-53
2022/01/21 11:12:40;;;;;;;;;;;15.80;33.90;;;;;;8330544;28;20044;-51
2022/01/21 11:16:44;;;;;;;;;;;15.80;33.90;;;;;;8329923;28;20344;-52
2022/01/21 11:20:55;;;;;;;;;;;15.80;33.90;;;;;;8330431;28;20015;-51
2022/01/21 11:24:59;;;;;;;;;;;15.80;33.90;;;;;;8332225;28;19921;-54
2022/01/21 11:29:00;;;;;;;;;;;15.80;33.90;;;;;;8330198;28;19913;-54
2022/01/21 11:33:01;;;;;;;;;;;15.80;33.90;;;;;;8330174;28;19917;-55
2022/01/21 11:37:03;;;;;;;;;;;15.80;33.90;;;;;;8329630;28;20289;-55
2022/01/21 11:41:04;;;;;;;;;;;15.80;33.90;;;;;;8329889;28;20286;-53
2022/01/21 11:45:19;;;;;;;;;;;15.80;33.90;;;;;;8329253;28;19919;-54
2022/01/21 11:49:20;;;;;;;;;;;15.80;33.80;;;;;;8330684;28;19917;-53
2022/01/21 11:53:40;;;;;;;;;;;15.80;33.80;;;;;;8329911;28;19914;-54
2022/01/21 11:57:40;;;;;;;;;;;15.80;33.80;;;;;;8329703;28;19932;-51
2022/01/21 12:01:48;;;;;;;;;;;15.80;33.80;;;;;;8328916;28;20369;-51
2022/01/21 12:05:50;;;;;;;;;;;15.80;33.80;;;;;;8329760;28;19928;-54
2022/01/21 12:09:55;;;;;;;;;;;15.80;33.90;;;;;;8328924;28;19914;-54
2022/01/21 12:13:55;;;;;;;;;;;15.80;33.80;;;;;;8329323;28;20004;-54
2022/01/21 12:18:20;;;;;;;;;;;15.80;33.70;;;;;;8329477;28;19925;-52
2022/01/21 12:22:20;;;;;;;;;;;15.70;33.60;;;;;;8330013;28;19925;-54
2022/01/21 12:26:24;;;;;;;;;;;15.80;33.70;;;;;;8331768;28;19917;-53
2022/01/21 12:30:31;;;;;;;;;;;15.80;33.70;;;;;;8335377;28;19913;-51
2022/01/21 12:34:50;;;;;;;;;;;15.80;33.60;;;;;;8334532;28;19928;-52
2022/01/21 12:42:51;;;;;;;;;;;15.80;33.60;;;;;;8334808;28;20382;-55
2022/01/21 12:46:52;;;;;;;;;;;15.80;33.60;;;;;;8334644;28;20390;-52
2022/01/21 12:50:59;;;;;;;;;;;15.80;33.50;;;;;;8334531;28;19921;-52
2022/01/21 12:59:23;;;;;;;;;;;15.80;33.50;;;;;;8339966;28;19940;-53
2022/01/21 13:03:33;;;;;;;;;;;15.80;33.40;;;;;;8334532;28;19929;-55
2022/01/21 13:07:47;;;;;;;;;;;15.80;33.40;;;;;;8333573;28;19917;-56
2022/01/21 13:11:59;;;;;;;;;;;15.80;33.50;;;;;;8334268;28;20054;-54
2022/01/21 13:16:00;;;;;;;;;;;15.80;33.40;;;;;;8334444;28;19918;-54
2022/01/21 13:20:03;;;;;;;;;;;15.80;33.40;;;;;;8333645;28;19925;-52
2022/01/21 13:24:15;;;;;;;;;;;15.80;33.30;;;;;;8333892;28;20004;-53
2022/01/21 13:28:15;;;;;;;;;;;15.90;33.40;;;;;;8334946;28;20524;-55
2022/01/21 13:32:21;;;;;;;;;;;15.90;33.50;;;;;;8333442;28;19921;-53
2022/01/21 13:36:35;;;;;;;;;;;15.80;33.50;;;;;;8332923;28;19928;-52
2022/01/21 13:40:37;;;;;;;;;;;15.80;33.40;;;;;;8327072;28;19932;-51
2022/01/21 13:44:48;;;;;;;;;;;15.80;33.40;;;;;;8332688;28;19917;-53
2022/01/21 13:48:49;;;;;;;;;;;15.80;33.30;;;;;;8328075;28;19917;-53
2022/01/21 13:53:07;;;;;;;;;;;15.90;33.40;;;;;;8325210;28;20012;-53
2022/01/21 13:57:08;;;;;;;;;;;15.80;33.30;;;;;;8329421;28;19917;-53
2022/01/21 14:01:10;;;;;;;;;;;15.80;33.30;;;;;;8328496;28;20318;-51
2022/01/21 14:05:11;;;;;;;;;;;15.90;33.30;;;;;;8311826;28;20042;-53
2022/01/21 14:09:13;;;;;;;;;;;15.90;33.40;;;;;;8299434;28;21290;-52
2022/01/21 14:13:13;;;;;;;;;;;15.80;33.30;;;;;;8298825;28;19917;-52
2022/01/21 14:17:14;;;;;;;;;;;15.80;33.30;;;;;;8294208;28;19925;-54
2022/01/21 14:21:16;;;;;;;;;;;15.80;33.30;;;;;;8272438;28;19926;-51
2022/01/21 14:25:17;;;;;;;;;;;15.80;33.20;;;;;;8292625;28;20407;-52
2022/01/21 14:29:33;;;;;;;;;;;15.90;33.30;;;;;;8285533;28;19913;-55
2022/01/21 14:33:42;;;;;;;;;;;15.90;33.30;;;;;;8286602;28;19922;-53
2022/01/21 14:37:44;;;;;;;;;;;15.90;33.20;;;;;;8322396;28;19931;-55
2022/01/21 14:41:46;;;;;;;;;;;15.90;33.20;;;;;;8299246;28;19921;-55
2022/01/21 14:45:56;;;;;;;;;;;15.80;33.10;;;;;;8298413;28;20409;-55
2022/01/21 14:50:02;;;;;;;;;;;15.90;33.10;;;;;;8297767;28;19925;-51
2022/01/21 14:54:10;;;;;;;;;;;15.90;33.10;;;;;;8265405;28;20063;-53
2022/01/21 14:58:11;;;;;;;;;;;15.90;33.10;;;;;;8292539;28;19996;-53
2022/01/21 15:02:11;;;;;;;;;;;15.80;33.10;;;;;;8297963;28;19917;-52
2022/01/21 15:06:16;;;;;;;;;;;15.80;33.10;;;;;;8297819;28;19921;-51
2022/01/21 15:10:23;;;;;;;;;;;15.80;33.00;;;;;;8297213;28;19921;-52
2022/01/21 15:14:25;;;;;;;;;;;15.80;33.00;;;;;;8297853;28;20500;-54
2022/01/21 15:18:28;;;;;;;;;;;15.80;33.00;;;;;;8297482;28;19929;-55
2022/01/21 15:22:28;;;;;;;;;;;15.80;33.00;;;;;;8296992;28;20384;-54
2022/01/21 15:26:28;;;;;;;;;;;15.80;33.00;;;;;;8297548;28;19925;-51
2022/01/21 15:30:29;;;;;;;;;;;15.80;33.00;;;;;;8300907;28;19923;-53
2022/01/21 15:34:30;;;;;;;;;;;15.80;32.90;;;;;;8307747;28;20281;-51
2022/01/21 15:38:30;;;;;;;;;;;15.80;33.00;;;;;;8297297;28;19933;-55
2022/01/21 15:42:31;;;;;;;;;;;15.80;33.00;;;;;;8316761;28;19971;-51
2022/01/21 15:46:31;;;;;;;;;;;15.80;33.00;;;;;;8329090;28;19921;-52
2022/01/21 15:50:31;;;;;;;;;;;15.80;32.90;;;;;;8291946;28;19921;-51
2022/01/21 15:54:34;;;;;;;;;;;15.80;32.90;;;;;;8286123;28;19921;-53
2022/01/21 15:58:35;;;;;;;;;;;15.80;32.90;;;;;;8296130;28;19968;-53
2022/01/21 16:02:36;;;;;;;;;;;15.80;32.90;;;;;;8320437;28;19979;-50
2022/01/21 16:06:36;;;;;;;;;;;15.80;32.90;;;;;;8335794;28;20332;-53
2022/01/21 16:10:36;;;;;;;;;;;15.80;32.90;;;;;;8314169;28;19926;-53
2022/01/21 16:14:37;;;;;;;;;;;15.80;32.90;;;;;;8303505;28;19914;-53
2022/01/21 16:18:37;;;;;;;;;;;15.80;32.90;;;;;;8302781;28;19925;-51
2022/01/21 16:22:38;;;;;;;;;;;15.80;32.90;;;;;;8299371;28;20012;-53
2022/01/21 16:26:39;;;;;;;;;;;15.80;32.90;;;;;;8287106;28;19940;-52
2022/01/21 16:30:40;;;;;;;;;;;15.80;32.90;;;;;;8288382;28;19948;-51
2022/01/21 16:34:40;;;;;;;;;;;15.80;32.80;;;;;;8290509;28;19913;-52
2022/01/21 16:38:41;;;;;;;;;;;15.80;32.90;;;;;;8296168;28;19925;-53
2022/01/21 16:42:41;;;;;;;;;;;15.80;32.90;;;;;;8298267;28;20320;-52
2022/01/21 16:46:42;;;;;;;;;;;15.80;32.90;;;;;;8300688;28;19925;-54
2022/01/21 16:50:42;;;;;;;;;;;15.80;32.90;;;;;;8285998;28;20381;-51
2022/01/21 16:54:43;;;;;;;;;;;15.80;32.90;;;;;;8298103;28;20001;-54
2022/01/21 16:58:43;;;;;;;;;;;15.70;32.90;;;;;;8301012;28;20470;-50
2022/01/21 17:02:44;;;;;;;;;;;15.70;32.90;;;;;;8301409;28;19921;-53
2022/01/21 17:06:44;;;;;;;;;;;15.70;32.90;;;;;;8300776;28;19925;-53
2022/01/21 17:10:45;;;;;;;;;;;15.70;33.00;;;;;;8300767;28;19996;-51
2022/01/21 17:14:45;;;;;;;;;;;15.70;32.90;;;;;;8301254;28;19914;-51
2022/01/21 17:18:46;;;;;;;;;;;15.70;33.00;;;;;;8301139;28;19926;-49
2022/01/21 17:22:47;;;;;;;;;;;15.70;33.00;;;;;;8300416;28;19926;-53
2022/01/21 17:26:48;;;;;;;;;;;15.70;33.00;;;;;;8301228;28;19918;-53
2022/01/21 17:30:49;;;;;;;;;;;15.70;32.90;;;;;;8300910;28;20278;-51
2022/01/21 17:34:56;;;;;;;;;;;15.70;33.00;;;;;;8333567;28;19917;-51
2022/01/21 17:38:56;;;;;;;;;;;15.70;33.00;;;;;;8333544;28;19975;-51
2022/01/21 17:42:57;;;;;;;;;;;15.70;33.00;;;;;;8332781;28;19924;-51
2022/01/21 17:46:57;;;;;;;;;;;15.70;33.00;;;;;;8333485;28;19923;-50
2022/01/21 17:51:00;;;;;;;;;;;15.70;33.00;;;;;;8332993;28;19913;-53
2022/01/21 17:55:03;;;;;;;;;;;15.70;33.00;;;;;;8330804;28;19917;-53
2022/01/21 17:59:06;;;;;;;;;;;15.70;32.90;;;;;;8332674;28;19929;-52
2022/01/21 18:03:06;;;;;;;;;;;15.70;33.00;;;;;;8332566;28;20012;-53
2022/01/21 18:07:07;;;;;;;;;;;15.70;33.00;;;;;;8331954;28;19917;-53
2022/01/21 18:11:14;;;;;;;;;;;15.70;32.90;;;;;;8332622;28;19980;-50
2022/01/21 18:15:14;;;;;;;;;;;15.70;32.90;;;;;;8335302;28;19936;-51
2022/01/21 18:19:23;;;;;;;;;;;15.70;33.00;;;;;;8331722;28;20004;-49
2022/01/21 18:23:23;;;;;;;;;;;15.70;33.00;;;;;;8338154;28;19921;-50
2022/01/21 18:27:23;;;;;;;;;;;15.70;32.90;;;;;;8331770;28;19975;-52
2022/01/21 18:31:24;;;;;;;;;;;15.70;32.90;;;;;;8330826;28;19913;-50
2022/01/21 18:35:25;;;;;;;;;;;15.70;33.00;;;;;;8331620;28;19913;-53
2022/01/21 18:39:26;;;;;;;;;;;15.70;32.90;;;;;;8331505;28;20370;-52
2022/01/21 18:43:27;;;;;;;;;;;15.70;32.90;;;;;;8330929;28;19924;-53
2022/01/21 18:47:31;;;;;;;;;;;15.70;32.90;;;;;;8331436;28;19925;-52
2022/01/21 18:51:31;;;;;;;;;;;15.70;33.00;;;;;;8331208;28;19913;-49
2022/01/21 18:55:32;;;;;;;;;;;15.70;33.00;;;;;;8330770;28;19917;-53
2022/01/21 18:59:32;;;;;;;;;;;15.70;33.00;;;;;;8330733;28;20325;-52
2022/01/21 19:03:33;;;;;;;;;;;15.70;33.00;;;;;;8331100;28;20383;-51
2022/01/21 19:07:33;;;;;;;;;;;15.70;33.00;;;;;;8330200;28;19921;-55
2022/01/21 19:11:34;;;;;;;;;;;15.70;33.00;;;;;;8330635;28;19913;-51
2022/01/21 19:15:35;;;;;;;;;;;15.70;33.00;;;;;;8330654;28;19920;-53
2022/01/21 19:19:36;;;;;;;;;;;15.70;33.00;;;;;;8329812;28;19944;-48
2022/01/21 19:23:37;;;;;;;;;;;15.70;33.00;;;;;;8330388;28;20293;-50
2022/01/21 19:27:38;;;;;;;;;;;15.70;33.00;;;;;;8330180;28;19975;-49
2022/01/21 19:31:38;;;;;;;;;;;15.70;33.00;;;;;;8329878;28;19920;-52
2022/01/21 19:35:39;;;;;;;;;;;15.70;33.00;;;;;;8329637;28;19920;-49
2022/01/21 19:39:40;;;;;;;;;;;15.70;33.00;;;;;;8330000;28;19932;-51
2022/01/21 19:43:41;;;;;;;;;;;15.70;33.00;;;;;;8329414;28;19925;-49
2022/01/21 19:47:54;;;;;;;;;;;15.70;33.00;;;;;;8329837;28;19917;-50
2022/01/21 19:51:55;;;;;;;;;;;15.70;33.00;;;;;;8329392;28;19913;-52
2022/01/21 19:55:55;;;;;;;;;;;15.70;33.00;;;;;;8330110;28;19913;-54
2022/01/21 20:00:06;;;;;;;;;;;15.70;33.00;;;;;;8329832;28;20377;-53
2022/01/21 20:08:39;;;;;;;;;;;15.70;33.00;;;;;;8335797;28;19924;-56
2022/01/21 20:12:48;;;;;;;;;;;15.70;33.00;;;;;;8329482;28;19975;-51
2022/01/21 20:16:50;;;;;;;;;;;15.70;33.00;;;;;;8329954;28;19913;-52
2022/01/21 20:20:50;;;;;;;;;;;15.70;33.00;;;;;;8329566;28;20328;-54
2022/01/21 20:24:51;;;;;;;;;;;15.70;33.00;;;;;;8328926;28;19918;-50
2022/01/21 20:28:51;;;;;;;;;;;15.70;33.50;;;;;;8329418;28;19917;-52
2022/01/21 20:32:55;;;;;;;;;;;15.80;33.00;;;;;;8329299;28;19917;-53
2022/01/21 20:36:59;;;;;;;;;;;15.80;32.90;;;;;;8328931;28;19913;-53
2022/01/21 20:41:11;;;;;;;;;;;15.80;32.90;;;;;;8329022;28;20381;-55
2022/01/21 20:45:12;;;;;;;;;;;15.80;32.90;;;;;;8329190;28;19917;-53
2022/01/21 20:49:13;;;;;;;;;;;15.80;32.90;;;;;;8333581;28;19924;-54
2022/01/21 20:53:15;;;;;;;;;;;15.80;33.40;;;;;;8335393;28;19975;-52
2022/01/21 20:57:15;;;;;;;;;;;15.80;32.80;;;;;;8334877;28;19959;-52
2022/01/21 21:01:16;;;;;;;;;;;15.80;32.80;;;;;;8334284;28;20386;-52
2022/01/21 21:05:17;;;;;;;;;;;15.80;32.80;;;;;;8334663;28;19925;-52
2022/01/21 21:09:24;;;;;;;;;;;15.80;32.80;;;;;;8334230;28;19913;-53
2022/01/21 21:13:24;;;;;;;;;;;15.80;32.80;;;;;;8334896;28;19944;-54
2022/01/21 21:24:05;;;;;;;;;;;15.80;32.80;;;;;;8334400;28;20389;-53
2022/01/21 21:26:26;;;;;;;;;;;15.80;32.80;;;;;;8333139;28;20392;-51
2022/01/21 22:13:57;;;;;;;;;;;15.70;33.00;;;;;;8332960;28;20000;-54
2022/01/21 22:48:31;;;;;;;;;;;15.70;33.10;;;;;;8336743;28;19921;-51
2022/01/21 23:00:59;;;;;;;;;;;15.60;33.00;;;;;;8330779;28;19928;-54
2022/01/21 23:05:03;;;;;;;;;;;15.60;33.00;;;;;;8317719;28;19928;-51
2022/01/21 23:09:04;;;;;;;;;;;15.60;33.10;;;;;;8330647;28;19917;-52
2022/01/21 23:13:04;;;;;;;;;;;15.60;33.10;;;;;;8329489;28;19924;-51
2022/01/21 23:17:05;;;;;;;;;;;15.60;33.00;;;;;;8330603;28;19971;-52
2022/01/21 23:21:06;;;;;;;;;;;15.60;33.00;;;;;;8330500;28;20289;-54
2022/01/21 23:25:08;;;;;;;;;;;15.60;33.10;;;;;;8329938;28;19940;-53
2022/01/21 23:33:10;;;;;;;;;;;15.60;33.10;;;;;;8330841;28;19971;-51
2022/01/21 23:37:14;;;;;;;;;;;15.60;33.10;;;;;;8329723;28;20407;-51
2022/01/21 23:41:14;;;;;;;;;;;15.60;33.10;;;;;;8330002;28;20334;-52
2022/01/21 23:45:16;;;;;;;;;;;15.60;33.10;;;;;;8329975;28;19971;-50
2022/01/21 23:49:30;;;;;;;;;;;15.70;33.00;;;;;;8329448;28;19955;-51
2022/01/21 23:53:31;;;;;;;;;;;15.70;33.00;;;;;;8336154;28;19967;-52
2022/01/21 23:57:32;;;;;;;;;;;15.70;33.00;;;;;;8330161;28;19924;-54
